createdAt,value
2022-12-03T00:00:47.800Z,55.45
2022-12-03T00:10:57.258Z,45.22
2022-12-03T00:20:59.438Z,44.65
2022-12-03T00:31:01.727Z,43.70
2022-12-03T00:41:03.994Z,43.30
2022-12-03T00:51:06.499Z,41.90
2022-12-03T01:01:08.698Z,36.90
2022-12-03T01:11:30.856Z,47.33
2022-12-03T01:21:33.590Z,38.42
2022-12-03T01:31:54.144Z,41.15
2022-12-03T01:41:58.872Z,39.63
2022-12-03T01:52:01.091Z,40.67
2022-12-03T02:02:35.821Z,37.28
2022-12-03T02:12:43.950Z,40.40
2022-12-03T02:23:04.724Z,45.45
2022-12-03T02:33:07.349Z,36.83
2022-12-03T02:43:10.691Z,40.15
2022-12-03T02:53:17.773Z,42.65
2022-12-03T03:03:21.154Z,39.43
2022-12-03T03:13:23.552Z,38.10
2022-12-03T03:23:26.091Z,42.63
2022-12-03T03:33:28.868Z,44.92
2022-12-03T03:43:34.932Z,40.75
2022-12-03T03:53:40.914Z,46.90
2022-12-03T04:03:43.148Z,41.10
2022-12-03T04:13:45.480Z,40.35
2022-12-03T04:23:47.665Z,43.13
2022-12-03T04:34:08.589Z,40.42
2022-12-03T04:44:29.547Z,37.80
2022-12-03T04:54:31.803Z,39.90
2022-12-03T05:04:34.153Z,44.70
2022-12-03T05:14:36.317Z,38.40
2022-12-03T05:24:38.561Z,35.13
2022-12-03T05:34:40.767Z,43.22
2022-12-03T05:44:42.943Z,44.97
2022-12-03T05:54:45.110Z,41.65
2022-12-03T06:04:47.398Z,54.65
2022-12-03T06:14:49.600Z,48.00
2022-12-03T06:24:52.248Z,51.03
2022-12-03T06:34:54.943Z,46.60
2022-12-03T06:44:57.443Z,59.03
2022-12-03T06:54:59.811Z,52.58
2022-12-03T07:05:02.151Z,53.05
2022-12-03T07:15:04.710Z,55.35
2022-12-03T07:25:07.655Z,48.20
2022-12-03T07:35:09.912Z,51.28
2022-12-03T07:45:12.163Z,49.83
2022-12-03T07:55:14.419Z,47.42
2022-12-03T08:05:16.676Z,45.95
2022-12-03T08:15:21.912Z,40.28
2022-12-03T08:25:30.315Z,39.67
2022-12-03T08:35:32.543Z,40.35
2022-12-03T08:45:40.488Z,41.47
2022-12-03T08:55:47.869Z,35.60
2022-12-03T09:05:51.035Z,36.53
2022-12-03T09:15:53.205Z,143.15
2022-12-03T09:25:55.440Z,250.88
2022-12-03T09:35:57.729Z,51.63
2022-12-03T09:46:00.535Z,69.47
2022-12-03T09:56:02.920Z,37.88
2022-12-03T10:06:05.329Z,71.85
2022-12-03T10:16:12.595Z,54.72
2022-12-03T10:26:14.916Z,47.03
2022-12-03T10:36:19.281Z,37.03
2022-12-03T10:46:22.581Z,31.23
2022-12-03T10:56:26.490Z,34.90
2022-12-03T11:06:31.645Z,43.03
2022-12-03T11:16:39.795Z,41.92
2022-12-03T11:26:41.972Z,63.22
2022-12-03T11:37:21.844Z,41.70
2022-12-03T11:47:24.095Z,33.83
2022-12-03T11:57:33.700Z,96.72
2022-12-03T12:07:36.805Z,54.95
2022-12-03T12:17:39.083Z,38.03
2022-12-03T12:27:45.591Z,38.15
2022-12-03T12:38:00.052Z,42.80
2022-12-03T12:48:24.599Z,40.58
2022-12-03T12:58:31.204Z,34.30
2022-12-03T13:08:43.031Z,37.92
2022-12-03T13:18:53.205Z,37.97
2022-12-03T13:28:57.926Z,27.58
2022-12-03T13:39:00.327Z,29.75
2022-12-03T13:49:02.616Z,28.67
2022-12-03T13:59:05.226Z,26.60
2022-12-03T14:09:07.555Z,29.27
2022-12-03T14:19:09.777Z,26.92
2022-12-03T14:29:11.956Z,29.98
2022-12-03T14:39:14.258Z,26.58
2022-12-03T14:49:16.854Z,29.15
2022-12-03T14:59:24.378Z,25.23
2022-12-03T15:09:30.199Z,28.10
2022-12-03T15:19:33.684Z,31.88
2022-12-03T15:29:35.920Z,28.90
2022-12-03T15:39:39.548Z,32.70
2022-12-03T15:49:44.965Z,28.13
2022-12-03T15:59:47.168Z,28.55
2022-12-03T16:09:49.423Z,29.08
2022-12-03T16:19:51.773Z,23.58
2022-12-03T16:29:56.358Z,33.90
2022-12-03T16:39:58.868Z,36.30
2022-12-03T16:50:03.679Z,35.03
2022-12-03T17:00:07.522Z,26.08
2022-12-03T17:10:10.318Z,25.38
2022-12-03T17:20:14.757Z,28.95
2022-12-03T17:30:17.620Z,24.42
2022-12-03T17:40:20.074Z,20.23
2022-12-03T17:50:22.245Z,21.10
2022-12-03T18:00:24.495Z,14.65
2022-12-03T18:10:28.262Z,14.68
2022-12-03T18:20:30.516Z,36.60
2022-12-03T18:30:32.728Z,22.83
2022-12-03T18:40:35.223Z,20.38
2022-12-03T18:50:39.113Z,25.25
2022-12-03T19:00:42.745Z,87.05
2022-12-03T19:10:45.695Z,52.17
2022-12-03T19:20:48.356Z,124.85
2022-12-03T19:31:02.198Z,131.45
2022-12-03T19:41:06.787Z,108.70
2022-12-03T19:51:32.878Z,127.22
2022-12-03T20:01:34.761Z,119.78
2022-12-03T20:11:37.853Z,109.72
2022-12-03T20:21:40.836Z,173.40
2022-12-03T20:31:43.280Z,180.82
2022-12-03T20:41:45.476Z,155.73
2022-12-03T20:51:51.517Z,127.75
2022-12-03T21:01:53.874Z,115.57
2022-12-03T21:11:56.325Z,96.25
2022-12-03T21:21:58.570Z,108.57
2022-12-03T21:40:12.740Z,91.50
2022-12-03T21:50:14.995Z,111.07
2022-12-03T22:00:17.465Z,89.63
2022-12-03T22:10:19.655Z,106.22
2022-12-03T22:20:21.884Z,124.13
2022-12-03T22:30:24.091Z,80.18
2022-12-03T22:40:26.305Z,82.80
2022-12-03T22:50:28.460Z,97.95
2022-12-03T23:00:33.287Z,92.40
2022-12-03T23:10:41.876Z,84.88
2022-12-03T23:20:46.684Z,72.78
2022-12-03T23:30:48.889Z,73.65
2022-12-03T23:40:53.107Z,62.00
2022-12-03T23:50:55.321Z,63.47
